Aviation Digital Data Service (ADDS)

Output produced by METARs form (1339 UTC 09 February 2016)
found at http://www.aviationweather.gov/adds/metars/
 
Forecast for: KSJC (SAN JOSE , CA, US)
Text: KSJC 091120Z 0912/1012 13004KT P6SM SKC
Forecast period: 1200 to 2200 UTC 09 February 2016
Forecast type: FROM: standard forecast or significant change
Winds: from the SE (130 degrees) at 5 MPH (4 knots; 2.1 m/s)
Visibility: 6 or more miles (10+ km)
Clouds: clear skies
Weather: no significant weather forecast for this period
Text: FM092200 32007KT P6SM SKC
Forecast period: 2200 UTC 09 February 2016 to 0400 UTC 10 February 2016
Forecast type: FROM: standard forecast or significant change
Winds: from the NW (320 degrees) at 8 MPH (7 knots; 3.6 m/s)
Visibility: 6 or more miles (10+ km)
Clouds: clear skies
Weather: no significant weather forecast for this period
Text: FM100400 VRB03KT P6SM SKC
Forecast period: 0400 to 1200 UTC 10 February 2016
Forecast type: FROM: standard forecast or significant change
Winds: variable direction winds at 3 MPH (3 knots; 1.6 m/s)
Visibility: 6 or more miles (10+ km)
Clouds: clear skies
Weather: no significant weather forecast for this period